createdAt,value
2022-12-04T00:01:20.387Z,1.50
2022-12-04T00:03:55.637Z,1.80
2022-12-04T00:06:29.622Z,1.60
2022-12-04T00:09:02.703Z,1.70
2022-12-04T00:11:36.158Z,1.30
2022-12-04T00:14:09.281Z,1.80
2022-12-04T00:16:42.170Z,1.60
2022-12-04T00:19:15.414Z,1.50
2022-12-04T00:21:47.830Z,1.70
2022-12-04T00:24:20.537Z,1.90
2022-12-04T00:26:53.908Z,1.50
2022-12-04T00:29:26.595Z,1.80
2022-12-04T00:31:59.324Z,1.70
2022-12-04T00:34:31.726Z,1.60
2022-12-04T00:37:04.350Z,1.40
2022-12-04T00:39:37.046Z,1.50
2022-12-04T00:42:09.784Z,1.40
2022-12-04T00:44:42.363Z,1.60
2022-12-04T00:47:14.956Z,1.80
2022-12-04T00:49:47.525Z,1.40
2022-12-04T00:52:20.495Z,1.40
2022-12-04T00:54:53.006Z,1.60
2022-12-04T00:57:25.558Z,1.70
2022-12-04T00:59:58.240Z,1.90
2022-12-04T01:02:32.796Z,2.00
2022-12-04T01:05:07.269Z,2.00
2022-12-04T01:07:40.190Z,2.40
2022-12-04T01:10:16.875Z,2.20
2022-12-04T01:12:53.046Z,2.50
2022-12-04T01:15:25.531Z,2.60
2022-12-04T01:17:58.376Z,2.90
2022-12-04T01:20:31.040Z,2.70
2022-12-04T01:23:03.698Z,2.80
2022-12-04T01:25:36.345Z,2.80
2022-12-04T01:28:09.063Z,2.60
2022-12-04T01:30:42.438Z,3.00
2022-12-04T01:33:15.088Z,2.40
2022-12-04T01:35:58.013Z,3.10
2022-12-04T01:38:31.566Z,2.60
2022-12-04T01:41:04.704Z,3.10
2022-12-04T01:43:40.043Z,3.10
2022-12-04T01:46:13.519Z,2.70
2022-12-04T01:48:51.611Z,3.20
2022-12-04T01:51:29.833Z,2.60
2022-12-04T01:54:08.952Z,3.00
2022-12-04T01:56:48.636Z,3.20
2022-12-04T01:59:27.949Z,3.10
2022-12-04T02:02:08.308Z,3.00
2022-12-04T02:04:43.422Z,3.20
2022-12-04T02:07:16.144Z,2.90
2022-12-04T02:09:55.917Z,2.60
2022-12-04T02:12:44.438Z,2.90
2022-12-04T02:15:27.424Z,3.30
2022-12-04T02:18:11.361Z,3.50
2022-12-04T02:20:49.980Z,2.80
2022-12-04T02:23:51.258Z,3.20
2022-12-04T02:26:46.161Z,2.80
2022-12-04T02:29:34.510Z,2.80
2022-12-04T02:32:20.242Z,2.90
2022-12-04T02:35:01.366Z,2.70
2022-12-04T02:37:38.878Z,2.60
2022-12-04T02:40:20.774Z,2.80
2022-12-04T02:43:03.465Z,2.60
2022-12-04T02:45:39.884Z,3.10
2022-12-04T02:48:14.796Z,3.20
2022-12-04T02:50:52.166Z,3.30
2022-12-04T02:53:28.324Z,3.00
2022-12-04T02:56:06.037Z,3.10
2022-12-04T02:58:43.761Z,3.10
2022-12-04T03:01:24.453Z,3.40
2022-12-04T03:04:05.572Z,3.30
2022-12-04T03:06:44.090Z,2.70
2022-12-04T03:09:22.257Z,2.40
2022-12-04T03:12:05.082Z,2.70
2022-12-04T03:14:43.697Z,3.00
2022-12-04T03:17:24.819Z,2.50
2022-12-04T03:20:02.915Z,2.80
2022-12-04T03:22:39.391Z,2.40
2022-12-04T03:25:13.911Z,2.30
2022-12-04T03:27:57.106Z,2.50
2022-12-04T03:30:36.890Z,2.30
2022-12-04T03:33:17.863Z,2.10
2022-12-04T03:35:56.866Z,2.20
2022-12-04T03:38:40.412Z,1.80
2022-12-04T03:41:22.112Z,1.70
2022-12-04T03:44:01.866Z,1.90
2022-12-04T03:46:41.660Z,1.80
2022-12-04T03:49:23.351Z,2.40
2022-12-04T03:52:03.286Z,2.20
2022-12-04T03:54:41.769Z,1.80
2022-12-04T03:57:22.163Z,1.70
2022-12-04T04:00:02.303Z,1.80
2022-12-04T04:02:42.594Z,2.00
2022-12-04T04:05:19.133Z,2.20
2022-12-04T04:08:17.841Z,2.20
2022-12-04T04:10:53.066Z,1.80
2022-12-04T04:13:50.562Z,1.60
2022-12-04T04:16:47.116Z,2.00
2022-12-04T04:19:40.251Z,2.10
2022-12-04T04:22:32.297Z,1.90
2022-12-04T04:25:12.399Z,2.10
2022-12-04T04:27:52.246Z,2.00
2022-12-04T04:30:25.641Z,1.80
2022-12-04T04:33:07.580Z,2.00
2022-12-04T04:35:53.840Z,1.90
2022-12-04T04:38:33.337Z,2.10
2022-12-04T04:41:17.437Z,1.60
2022-12-04T04:44:03.640Z,1.80
2022-12-04T04:46:42.828Z,1.90
2022-12-04T04:49:18.616Z,1.90
2022-12-04T04:51:51.853Z,1.50
2022-12-04T04:54:25.016Z,2.10
2022-12-04T04:56:58.044Z,2.10
2022-12-04T04:59:30.663Z,1.80
2022-12-04T05:02:03.609Z,1.80
2022-12-04T05:04:36.331Z,1.90
2022-12-04T05:07:09.369Z,2.10
2022-12-04T05:09:42.300Z,2.10
2022-12-04T05:12:14.882Z,2.20
2022-12-04T05:14:49.396Z,2.20
2022-12-04T05:17:22.576Z,1.80
2022-12-04T05:19:56.666Z,1.80
2022-12-04T05:22:33.787Z,1.90
2022-12-04T05:25:07.807Z,2.20
2022-12-04T05:27:40.584Z,1.90
2022-12-04T05:30:15.730Z,1.80
2022-12-04T05:32:48.680Z,2.10
2022-12-04T05:35:21.940Z,1.70
2022-12-04T05:37:54.533Z,2.00
2022-12-04T05:40:27.478Z,1.60
2022-12-04T05:43:00.559Z,1.50
2022-12-04T05:45:33.227Z,1.80
2022-12-04T05:48:06.130Z,2.00
2022-12-04T05:50:39.323Z,2.10
2022-12-04T05:53:12.922Z,1.80
2022-12-04T05:55:45.467Z,1.60
2022-12-04T05:58:17.838Z,1.90
2022-12-04T06:00:50.354Z,2.00
2022-12-04T06:03:23.291Z,1.80
2022-12-04T06:05:56.159Z,2.00
2022-12-04T06:08:28.999Z,1.40
2022-12-04T06:11:02.275Z,2.00
2022-12-04T06:13:35.001Z,2.00
2022-12-04T06:16:08.293Z,1.90
2022-12-04T06:18:41.131Z,1.60
2022-12-04T06:21:14.368Z,1.40
2022-12-04T06:23:47.588Z,1.90
2022-12-04T06:26:21.251Z,1.60
2022-12-04T06:28:56.392Z,2.00
2022-12-04T06:31:33.849Z,1.60
2022-12-04T06:34:08.578Z,1.40
2022-12-04T06:36:41.373Z,1.80
2022-12-04T06:39:18.482Z,1.50
2022-12-04T06:41:51.900Z,1.50
2022-12-04T06:44:24.975Z,1.30
2022-12-04T06:47:00.788Z,1.70
2022-12-04T06:49:34.196Z,1.50
2022-12-04T06:52:07.596Z,1.30
2022-12-04T06:54:40.488Z,1.30
2022-12-04T06:57:13.982Z,1.40
2022-12-04T06:59:46.576Z,1.50
2022-12-04T07:02:19.495Z,1.70
2022-12-04T07:04:56.218Z,1.20
2022-12-04T07:07:29.120Z,1.30
2022-12-04T07:10:01.620Z,1.40
2022-12-04T07:12:34.581Z,1.30
2022-12-04T07:15:09.408Z,1.20
2022-12-04T07:17:41.919Z,1.10
2022-12-04T07:20:16.938Z,1.30
2022-12-04T07:22:49.571Z,1.20
2022-12-04T07:25:22.608Z,1.10
2022-12-04T07:27:55.615Z,1.10
2022-12-04T07:30:28.297Z,1.10
2022-12-04T07:33:01.156Z,1.20
2022-12-04T07:35:33.970Z,1.20
2022-12-04T07:38:07.056Z,1.20
2022-12-04T07:40:41.693Z,1.20
2022-12-04T07:43:14.337Z,1.10
2022-12-04T07:45:46.966Z,1.30
2022-12-04T07:48:19.654Z,1.20
2022-12-04T07:50:52.614Z,1.50
2022-12-04T07:53:25.453Z,1.60
2022-12-04T07:55:57.946Z,1.10
2022-12-04T07:58:31.088Z,1.30
2022-12-04T08:01:13.482Z,1.20
2022-12-04T08:03:49.077Z,1.30
2022-12-04T08:06:24.507Z,1.20
2022-12-04T08:08:58.396Z,1.10
2022-12-04T08:11:32.381Z,1.00
2022-12-04T08:14:09.830Z,1.10
2022-12-04T08:16:48.194Z,0.90
2022-12-04T08:19:23.894Z,1.40
2022-12-04T08:21:58.026Z,1.90
2022-12-04T08:24:30.988Z,2.40
2022-12-04T08:27:03.857Z,3.60
2022-12-04T08:29:36.669Z,2.90
2022-12-04T08:32:10.680Z,3.90
2022-12-04T08:34:43.013Z,3.90
2022-12-04T08:37:15.731Z,4.30
2022-12-04T08:39:49.266Z,4.30
2022-12-04T08:42:21.890Z,3.90
2022-12-04T08:44:54.617Z,4.80
2022-12-04T08:47:26.983Z,3.40
2022-12-04T08:49:59.527Z,4.20
2022-12-04T08:52:32.530Z,4.20
2022-12-04T08:55:05.500Z,3.80
2022-12-04T08:57:38.511Z,3.40
2022-12-04T09:00:15.501Z,3.00
2022-12-04T09:02:51.411Z,3.40
2022-12-04T09:05:24.309Z,3.10
2022-12-04T09:07:57.196Z,2.60
2022-12-04T09:10:30.052Z,2.60
2022-12-04T09:13:03.216Z,2.50
2022-12-04T09:15:39.710Z,2.70
2022-12-04T09:18:13.104Z,2.60
2022-12-04T09:20:45.970Z,2.20
2022-12-04T09:23:19.219Z,2.80
2022-12-04T09:25:52.738Z,2.60
2022-12-04T09:28:25.417Z,2.50
2022-12-04T09:31:07.094Z,2.00
2022-12-04T09:33:39.849Z,2.60
2022-12-04T09:36:16.330Z,2.30
2022-12-04T09:38:52.033Z,3.10
2022-12-04T09:42:03.496Z,3.10
2022-12-04T09:44:41.563Z,2.80
2022-12-04T09:47:30.867Z,2.70
2022-12-04T09:50:13.507Z,2.90
2022-12-04T09:52:57.211Z,2.80
2022-12-04T09:55:34.757Z,3.10
2022-12-04T09:58:15.024Z,3.30
2022-12-04T10:00:51.856Z,3.20
2022-12-04T10:03:29.461Z,4.10
2022-12-04T10:06:14.559Z,3.30
2022-12-04T10:08:57.181Z,3.60
2022-12-04T10:11:47.442Z,3.80
2022-12-04T10:14:51.987Z,4.20
2022-12-04T10:17:55.201Z,3.80
2022-12-04T10:20:49.927Z,4.00
2022-12-04T10:23:35.608Z,2.80
2022-12-04T10:26:16.050Z,3.80
2022-12-04T10:28:57.760Z,4.80
2022-12-04T10:31:33.840Z,5.70
2022-12-04T10:34:17.790Z,4.40
2022-12-04T10:36:56.173Z,4.20
2022-12-04T10:39:37.180Z,4.00
2022-12-04T10:42:25.528Z,3.70
2022-12-04T10:44:58.634Z,4.60
2022-12-04T10:47:31.905Z,4.50
2022-12-04T10:50:14.771Z,5.10
2022-12-04T10:52:48.069Z,4.40
2022-12-04T10:55:34.178Z,4.90
2022-12-04T10:58:16.424Z,4.60
2022-12-04T11:01:03.798Z,3.90
2022-12-04T11:03:37.230Z,4.60
2022-12-04T11:06:15.352Z,3.60
2022-12-04T11:08:54.482Z,3.30
2022-12-04T11:11:32.176Z,3.20
2022-12-04T11:14:15.037Z,3.70
2022-12-04T11:16:50.398Z,3.60
2022-12-04T11:19:27.384Z,4.10
2022-12-04T11:22:12.385Z,3.20
2022-12-04T11:24:51.483Z,3.60
2022-12-04T11:27:31.817Z,2.90
2022-12-04T11:30:15.524Z,3.40
2022-12-04T11:32:49.741Z,3.00
2022-12-04T11:35:28.277Z,4.10
2022-12-04T11:38:09.026Z,3.30
2022-12-04T11:40:46.825Z,3.90
2022-12-04T11:43:21.775Z,3.60
2022-12-04T11:46:04.017Z,3.70
2022-12-04T11:48:47.439Z,4.00
2022-12-04T11:51:30.780Z,3.40
2022-12-04T11:54:13.155Z,3.60
2022-12-04T11:56:52.059Z,4.30
2022-12-04T11:59:46.362Z,4.20
2022-12-04T12:02:45.120Z,5.20
2022-12-04T12:05:48.333Z,4.20
2022-12-04T12:08:36.476Z,4.30
2022-12-04T12:11:21.777Z,4.50
2022-12-04T12:14:10.842Z,5.00
2022-12-04T12:17:03.775Z,5.10
2022-12-04T12:20:08.402Z,4.60
2022-12-04T12:23:12.946Z,4.50
2022-12-04T12:25:56.976Z,4.60
2022-12-04T12:29:20.132Z,3.80
2022-12-04T12:32:18.638Z,3.60
2022-12-04T12:34:52.866Z,4.40
2022-12-04T12:37:36.693Z,4.10
2022-12-04T12:40:16.408Z,3.80
2022-12-04T12:46:00.118Z,4.00
2022-12-04T12:48:38.482Z,4.40
2022-12-04T12:51:34.632Z,4.50
2022-12-04T12:54:24.792Z,4.10
2022-12-04T12:57:07.405Z,3.50
2022-12-04T12:59:47.693Z,3.70
2022-12-04T13:02:30.819Z,4.30
2022-12-04T13:05:10.008Z,4.60
2022-12-04T13:07:53.377Z,3.80
2022-12-04T13:10:32.879Z,4.10
2022-12-04T13:13:13.743Z,6.20
2022-12-04T13:15:53.047Z,5.60
2022-12-04T13:18:33.835Z,5.40
2022-12-04T13:21:10.112Z,4.70
2022-12-04T13:24:00.437Z,4.70
2022-12-04T13:26:49.886Z,5.30
2022-12-04T13:29:40.780Z,5.30
2022-12-04T13:32:43.394Z,5.00
2022-12-04T13:35:33.946Z,5.70
2022-12-04T13:38:25.899Z,5.50
2022-12-04T13:41:03.257Z,5.10
2022-12-04T13:43:48.258Z,4.70
2022-12-04T13:46:34.400Z,4.60
2022-12-04T13:49:27.975Z,4.40
2022-12-04T13:52:03.380Z,4.60
2022-12-04T13:54:37.730Z,9.70
2022-12-04T13:57:27.424Z,6.40
2022-12-04T14:00:25.894Z,4.50
2022-12-04T14:03:02.478Z,4.40
2022-12-04T14:05:43.661Z,4.50
2022-12-04T14:08:29.757Z,4.70
2022-12-04T14:11:07.898Z,5.40
2022-12-04T14:13:49.954Z,5.00
2022-12-04T14:16:31.517Z,4.70
2022-12-04T14:19:07.220Z,5.30
2022-12-04T14:21:46.951Z,5.50
2022-12-04T14:24:40.325Z,6.30
2022-12-04T14:27:44.736Z,7.00
2022-12-04T14:30:24.813Z,6.10
2022-12-04T14:33:10.415Z,6.30
2022-12-04T14:35:51.679Z,6.10
2022-12-04T14:38:26.779Z,5.40
2022-12-04T14:41:01.955Z,6.20
2022-12-04T14:43:41.486Z,6.80
2022-12-04T14:46:23.088Z,5.40
2022-12-04T14:49:06.599Z,6.00
2022-12-04T14:51:47.293Z,4.40
2022-12-04T14:54:33.254Z,4.70
2022-12-04T14:57:27.696Z,4.50
2022-12-04T15:00:01.660Z,5.70
2022-12-04T15:02:42.727Z,6.60
2022-12-04T15:05:22.430Z,6.40
2022-12-04T15:07:58.666Z,6.60
2022-12-04T15:10:51.806Z,7.10
2022-12-04T15:13:33.739Z,6.30
2022-12-04T15:16:17.643Z,7.90
2022-12-04T15:19:01.567Z,8.10
2022-12-04T15:21:43.787Z,7.00
2022-12-04T15:24:24.240Z,7.50
2022-12-04T15:26:59.141Z,6.70
2022-12-04T15:29:38.182Z,6.70
2022-12-04T15:32:14.491Z,7.70
2022-12-04T15:34:50.848Z,7.10
2022-12-04T15:37:27.041Z,6.70
2022-12-04T15:40:00.281Z,6.80
2022-12-04T15:42:33.912Z,7.10
2022-12-04T15:45:34.404Z,7.30
2022-12-04T15:48:07.232Z,6.00
2022-12-04T15:50:40.305Z,6.10
2022-12-04T15:53:21.872Z,5.60
2022-12-04T15:55:58.267Z,6.00
2022-12-04T15:58:34.303Z,5.70
2022-12-04T16:01:10.746Z,6.10
2022-12-04T16:03:51.118Z,6.30
2022-12-04T16:06:27.026Z,6.40
2022-12-04T16:09:01.692Z,6.60
2022-12-04T16:11:38.987Z,6.00
2022-12-04T16:14:20.251Z,6.90
2022-12-04T16:17:06.221Z,6.70
2022-12-04T16:19:42.330Z,6.70
2022-12-04T16:22:21.401Z,7.20
2022-12-04T16:24:54.280Z,10.60
2022-12-04T16:27:28.397Z,10.70
2022-12-04T16:30:01.246Z,8.10
2022-12-04T16:32:36.725Z,7.40
2022-12-04T16:35:14.537Z,7.60
2022-12-04T16:37:47.154Z,8.40
2022-12-04T16:40:20.573Z,8.90
2022-12-04T16:42:53.291Z,10.40
2022-12-04T16:45:30.708Z,10.30
2022-12-04T16:48:03.718Z,10.00
2022-12-04T16:50:36.292Z,11.50
2022-12-04T16:53:09.334Z,10.90
2022-12-04T16:55:45.775Z,10.00
2022-12-04T16:58:19.243Z,10.20
2022-12-04T17:00:57.228Z,11.20
2022-12-04T17:03:32.677Z,10.90
2022-12-04T17:06:05.546Z,10.50
2022-12-04T17:08:38.396Z,8.80
2022-12-04T17:11:13.298Z,9.10
2022-12-04T17:13:46.357Z,10.80
2022-12-04T17:16:20.119Z,9.60
2022-12-04T17:18:53.581Z,8.60
2022-12-04T17:21:26.459Z,8.60
2022-12-04T17:23:59.198Z,9.10
2022-12-04T17:26:32.602Z,8.50
2022-12-04T17:29:05.674Z,9.90
2022-12-04T17:31:38.588Z,10.80
2022-12-04T17:34:11.465Z,10.20
2022-12-04T17:36:44.462Z,9.70
2022-12-04T17:39:17.093Z,9.50
2022-12-04T17:41:50.181Z,8.70
2022-12-04T17:44:22.698Z,7.80
2022-12-04T17:46:56.024Z,8.50
2022-12-04T17:49:28.835Z,7.80
2022-12-04T17:52:01.771Z,7.50
2022-12-04T17:54:34.711Z,7.50
2022-12-04T17:57:07.275Z,7.20
2022-12-04T17:59:41.319Z,8.20
2022-12-04T18:02:15.881Z,10.00
2022-12-04T18:04:48.615Z,8.10
2022-12-04T18:07:21.832Z,19.60
2022-12-04T18:09:55.335Z,11.20
2022-12-04T18:12:28.265Z,11.60
2022-12-04T18:15:00.622Z,11.50
2022-12-04T18:17:33.151Z,12.50
2022-12-04T18:20:07.044Z,11.00
2022-12-04T18:22:39.971Z,9.70
2022-12-04T18:25:14.060Z,9.60
2022-12-04T18:27:46.847Z,11.00
2022-12-04T18:30:20.448Z,10.60
2022-12-04T18:32:55.132Z,10.90
2022-12-04T18:35:28.214Z,13.00
2022-12-04T18:38:00.941Z,11.70
2022-12-04T18:40:35.832Z,11.30
2022-12-04T18:43:08.709Z,10.50
2022-12-04T18:45:44.056Z,10.80
2022-12-04T18:48:17.412Z,10.30
2022-12-04T18:50:50.493Z,12.00
2022-12-04T18:53:25.004Z,10.60
2022-12-04T18:56:03.530Z,9.10
2022-12-04T18:58:37.952Z,8.90
2022-12-04T19:01:12.515Z,10.30
2022-12-04T19:03:46.614Z,15.90
2022-12-04T19:06:19.541Z,15.70
2022-12-04T19:08:52.254Z,16.10
2022-12-04T19:11:25.555Z,15.00
2022-12-04T19:13:58.765Z,15.40
2022-12-04T19:16:32.776Z,15.20
2022-12-04T19:19:05.848Z,15.60
2022-12-04T19:21:39.043Z,14.60
2022-12-04T19:24:14.239Z,13.10
2022-12-04T19:26:48.259Z,13.00
2022-12-04T19:29:21.098Z,15.30
2022-12-04T19:31:59.100Z,14.40
2022-12-04T19:34:32.658Z,14.80
2022-12-04T19:37:07.071Z,16.90
2022-12-04T19:39:40.650Z,16.80
2022-12-04T19:42:13.953Z,17.70
2022-12-04T19:44:48.699Z,16.30
2022-12-04T19:47:22.576Z,17.50
2022-12-04T19:49:56.110Z,16.00
2022-12-04T19:52:29.020Z,17.00
2022-12-04T19:55:01.853Z,16.10
2022-12-04T19:57:35.107Z,15.50
2022-12-04T20:00:11.576Z,15.30
2022-12-04T20:02:47.634Z,14.20
2022-12-04T20:05:21.124Z,14.30
2022-12-04T20:07:54.077Z,15.70
2022-12-04T20:10:27.095Z,14.60
2022-12-04T20:13:00.082Z,14.20
2022-12-04T20:15:35.833Z,14.00
2022-12-04T20:18:09.186Z,13.00
2022-12-04T20:20:45.133Z,10.80
2022-12-04T20:23:18.214Z,12.90
2022-12-04T20:25:50.595Z,13.00
2022-12-04T20:28:23.867Z,15.70
2022-12-04T20:30:56.454Z,15.30
2022-12-04T20:33:29.308Z,18.50
2022-12-04T20:36:04.764Z,14.70
2022-12-04T20:38:37.668Z,15.30
2022-12-04T20:41:16.045Z,15.60
2022-12-04T20:43:49.920Z,14.60
2022-12-04T20:46:28.412Z,14.90
2022-12-04T20:49:01.920Z,13.90
2022-12-04T20:51:38.351Z,17.70
2022-12-04T20:54:13.226Z,16.70
2022-12-04T20:56:46.259Z,15.00
2022-12-04T20:59:20.932Z,14.90
2022-12-04T21:01:54.823Z,16.20
2022-12-04T21:04:28.482Z,16.10
2022-12-04T21:07:02.095Z,17.30
2022-12-04T21:09:35.393Z,17.60
2022-12-04T21:12:28.528Z,18.80
2022-12-04T21:15:18.832Z,18.20
2022-12-04T21:17:51.529Z,15.80
2022-12-04T21:20:24.752Z,15.20
2022-12-04T21:22:57.410Z,17.60
2022-12-04T21:25:29.884Z,15.60
2022-12-04T21:28:02.733Z,16.80
2022-12-04T21:30:36.286Z,15.90
2022-12-04T21:33:08.976Z,15.60
2022-12-04T21:35:43.296Z,14.90
2022-12-04T21:38:16.149Z,16.70
2022-12-04T21:40:52.822Z,15.60
2022-12-04T21:43:25.419Z,15.80
2022-12-04T21:46:09.458Z,16.50
2022-12-04T21:48:42.653Z,15.70
2022-12-04T21:51:33.044Z,15.70
2022-12-04T21:54:09.138Z,17.40
2022-12-04T21:56:41.753Z,16.00
2022-12-04T21:59:14.732Z,15.70
2022-12-04T22:01:48.163Z,15.60
2022-12-04T22:04:21.450Z,15.00
2022-12-04T22:06:54.734Z,14.10
2022-12-04T22:09:27.838Z,16.50
2022-12-04T22:12:00.952Z,14.60
2022-12-04T22:14:35.344Z,14.90
2022-12-04T22:17:07.753Z,15.10
2022-12-04T22:19:40.394Z,14.70
2022-12-04T22:22:12.688Z,15.60
2022-12-04T22:24:45.659Z,19.70
2022-12-04T22:27:19.058Z,21.20
2022-12-04T22:29:52.941Z,18.70
2022-12-04T22:32:25.340Z,15.40
2022-12-04T22:34:58.302Z,15.90
2022-12-04T22:37:31.035Z,15.70
2022-12-04T22:40:03.482Z,15.50
2022-12-04T22:42:35.947Z,16.90
2022-12-04T22:45:11.118Z,16.50
2022-12-04T22:47:44.283Z,15.20
2022-12-04T22:50:17.383Z,15.80
2022-12-04T22:52:50.026Z,15.30
2022-12-04T22:55:22.845Z,16.80
2022-12-04T22:57:55.416Z,18.50
2022-12-04T23:00:28.339Z,16.30
2022-12-04T23:03:01.402Z,13.50
2022-12-04T23:05:35.805Z,12.70
2022-12-04T23:08:09.265Z,15.30
2022-12-04T23:10:42.708Z,14.00
2022-12-04T23:13:15.255Z,18.20
2022-12-04T23:15:50.008Z,16.50
2022-12-04T23:18:22.693Z,15.80
2022-12-04T23:20:55.528Z,17.70
2022-12-04T23:23:28.117Z,17.10
2022-12-04T23:26:04.827Z,16.50
2022-12-04T23:28:37.721Z,17.50
2022-12-04T23:31:11.773Z,17.00
2022-12-04T23:33:45.015Z,16.80
2022-12-04T23:36:19.165Z,15.30
2022-12-04T23:38:51.889Z,16.30
2022-12-04T23:41:26.655Z,17.20
2022-12-04T23:44:00.062Z,19.30
2022-12-04T23:46:34.923Z,18.90
2022-12-04T23:49:07.600Z,19.40
2022-12-04T23:51:40.233Z,18.40
2022-12-04T23:54:13.220Z,18.20
2022-12-04T23:56:46.536Z,17.60
2022-12-04T23:59:19.196Z,20.00
